createdAt,value
2018-11-20T00:00:09.154Z,0.00
2018-11-20T00:01:09.116Z,0.00
2018-11-20T00:02:09.073Z,0.00
2018-11-20T00:03:09.046Z,0.00
2018-11-20T00:04:08.992Z,0.00
2018-11-20T00:05:08.975Z,0.00
2018-11-20T00:06:08.915Z,0.00
2018-11-20T00:07:08.873Z,0.00
2018-11-20T00:08:08.851Z,0.00
2018-11-20T00:09:08.791Z,0.00
2018-11-20T00:10:08.747Z,0.00
2018-11-20T00:11:08.711Z,0.00
2018-11-20T00:12:08.667Z,0.00
2018-11-20T00:13:08.632Z,0.00
2018-11-20T00:14:08.602Z,0.00
2018-11-20T00:15:08.549Z,0.00
2018-11-20T00:16:09.099Z,0.00
2018-11-20T00:17:08.467Z,0.00
2018-11-20T00:18:08.435Z,0.00
2018-11-20T00:19:08.870Z,0.00
2018-11-20T00:20:08.753Z,0.00
2018-11-20T00:21:08.300Z,0.00
2018-11-20T00:22:08.265Z,0.00
2018-11-20T00:23:08.249Z,0.00
2018-11-20T00:24:08.199Z,0.00
2018-11-20T00:25:09.101Z,0.00
2018-11-20T00:26:08.103Z,0.00
2018-11-20T00:27:08.063Z,0.00
2018-11-20T00:28:08.023Z,0.00
2018-11-20T00:29:07.991Z,0.00
2018-11-20T00:30:07.942Z,0.00
2018-11-20T00:31:07.906Z,0.00
2018-11-20T00:32:07.892Z,0.00
2018-11-20T00:33:07.823Z,0.00
2018-11-20T00:34:07.787Z,0.00
2018-11-20T00:35:07.742Z,0.00
2018-11-20T00:36:07.715Z,0.00
2018-11-20T00:37:07.659Z,0.00
2018-11-20T00:38:07.620Z,0.00
2018-11-20T00:39:07.590Z,0.00
2018-11-20T00:40:07.540Z,0.00
2018-11-20T00:41:07.501Z,0.00
2018-11-20T00:42:07.467Z,0.00
2018-11-20T00:43:07.417Z,0.00
2018-11-20T00:44:07.402Z,0.00
2018-11-20T00:45:07.340Z,0.00
2018-11-20T00:46:07.298Z,0.00
2018-11-20T00:47:07.260Z,0.00
2018-11-20T00:48:07.220Z,0.00
2018-11-20T00:49:07.176Z,0.00
2018-11-20T00:50:07.143Z,0.00
2018-11-20T00:51:07.098Z,0.00
2018-11-20T00:52:07.056Z,0.00
2018-11-20T00:53:07.018Z,0.00
2018-11-20T00:54:06.980Z,0.00
2018-11-20T00:55:06.954Z,0.00
2018-11-20T00:56:06.898Z,0.00
2018-11-20T00:57:06.857Z,0.00
2018-11-20T00:58:06.848Z,0.00
2018-11-20T00:59:06.774Z,0.00
2018-11-20T01:00:06.756Z,0.00
2018-11-20T01:01:06.698Z,0.00
2018-11-20T01:02:06.659Z,0.00
2018-11-20T01:03:06.615Z,0.00
2018-11-20T01:04:06.580Z,0.00
2018-11-20T01:05:06.545Z,0.00
2018-11-20T01:06:06.506Z,0.00
2018-11-20T01:07:06.462Z,0.00
2018-11-20T01:08:06.419Z,0.00
2018-11-20T01:09:06.383Z,0.00
2018-11-20T01:10:06.339Z,0.00
2018-11-20T01:11:06.310Z,0.00
2018-11-20T01:12:06.257Z,0.00
2018-11-20T01:13:06.218Z,0.00
2018-11-20T01:14:06.236Z,0.00
2018-11-20T01:15:06.143Z,0.00
2018-11-20T01:16:06.109Z,0.00
2018-11-20T01:17:06.059Z,0.00
2018-11-20T01:18:06.020Z,0.00
2018-11-20T01:19:05.982Z,0.00
2018-11-20T01:20:05.941Z,0.00
2018-11-20T01:21:05.920Z,0.00
2018-11-20T01:22:05.859Z,0.00
2018-11-20T01:23:05.818Z,0.00
2018-11-20T01:24:05.781Z,0.00
2018-11-20T01:25:06.612Z,0.00
2018-11-20T01:26:05.704Z,0.00
2018-11-20T01:27:05.668Z,0.00
2018-11-20T01:28:05.624Z,0.00
2018-11-20T01:29:05.583Z,0.00
2018-11-20T01:30:05.545Z,0.00
2018-11-20T01:31:05.509Z,0.00
2018-11-20T01:32:05.483Z,0.00
2018-11-20T01:33:05.419Z,0.00
2018-11-20T01:34:05.381Z,0.00
2018-11-20T01:35:05.339Z,0.00
2018-11-20T01:36:05.301Z,0.00
2018-11-20T01:37:05.259Z,0.00
2018-11-20T01:38:05.236Z,0.00
2018-11-20T01:39:05.182Z,0.00
2018-11-20T01:40:05.142Z,0.00
2018-11-20T01:41:05.617Z,0.00
2018-11-20T01:42:05.060Z,0.00
2018-11-20T01:43:05.052Z,0.00
2018-11-20T01:44:04.981Z,0.00
2018-11-20T01:45:05.620Z,0.00
2018-11-20T01:46:04.905Z,0.00
2018-11-20T01:47:04.862Z,0.00
2018-11-20T01:48:04.823Z,0.00
2018-11-20T01:49:04.791Z,0.00
2018-11-20T01:50:04.752Z,0.00
2018-11-20T01:51:04.705Z,0.00
2018-11-20T01:52:04.663Z,0.00
2018-11-20T01:53:04.625Z,0.00
2018-11-20T01:54:04.596Z,0.00
2018-11-20T01:55:04.546Z,0.00
2018-11-20T01:56:04.505Z,0.00
2018-11-20T01:57:04.464Z,0.00
2018-11-20T01:58:04.446Z,0.00
2018-11-20T01:59:04.406Z,0.00
2018-11-20T02:00:04.341Z,0.00
2018-11-20T02:01:04.305Z,0.00
2018-11-20T02:02:04.266Z,0.00
2018-11-20T02:03:04.228Z,0.00
2018-11-20T02:04:04.256Z,0.00
2018-11-20T02:05:04.175Z,0.00
2018-11-20T02:06:04.107Z,0.00
2018-11-20T02:07:04.068Z,0.00
2018-11-20T02:08:04.031Z,0.00
2018-11-20T02:09:03.986Z,0.00
2018-11-20T02:10:03.975Z,0.00
2018-11-20T02:11:03.924Z,0.00
2018-11-20T02:12:03.867Z,0.00
2018-11-20T02:13:03.827Z,0.00
2018-11-20T02:14:03.788Z,0.00
2018-11-20T02:15:03.747Z,0.00
2018-11-20T02:16:03.729Z,0.00
2018-11-20T02:17:03.670Z,0.00
2018-11-20T02:18:03.627Z,0.00
2018-11-20T02:19:04.136Z,0.00
2018-11-20T02:20:03.549Z,0.00
2018-11-20T02:21:11.576Z,0.00
2018-11-20T02:22:03.468Z,0.00
2018-11-20T02:23:03.429Z,0.00
2018-11-20T02:24:03.388Z,0.00
2018-11-20T02:25:03.349Z,0.00
2018-11-20T02:26:03.309Z,0.00
2018-11-20T02:27:03.278Z,0.00
2018-11-20T02:28:03.227Z,0.00
2018-11-20T02:29:03.187Z,0.00
2018-11-20T02:30:03.151Z,0.00
2018-11-20T02:31:03.665Z,0.00
2018-11-20T02:32:03.082Z,0.00
2018-11-20T02:33:03.031Z,0.00
2018-11-20T02:34:02.993Z,0.00
2018-11-20T02:35:02.952Z,0.00
2018-11-20T02:36:02.911Z,0.00
2018-11-20T02:37:02.881Z,0.00
2018-11-20T02:38:02.839Z,0.00
2018-11-20T02:39:02.792Z,0.00
2018-11-20T02:40:02.787Z,0.00
2018-11-20T02:41:02.717Z,0.00
2018-11-20T02:42:02.690Z,0.00
2018-11-20T02:43:02.632Z,0.00
2018-11-20T02:44:02.590Z,0.00
2018-11-20T02:45:02.561Z,0.00
2018-11-20T02:46:02.521Z,0.00
2018-11-20T02:47:02.470Z,0.00
2018-11-20T02:48:02.443Z,0.00
2018-11-20T02:49:02.393Z,0.00
2018-11-20T02:50:02.355Z,0.00
2018-11-20T02:51:02.313Z,0.00
2018-11-20T02:52:02.274Z,0.00
2018-11-20T02:53:02.246Z,0.00
2018-11-20T02:54:02.197Z,0.00
2018-11-20T02:55:02.153Z,0.00
2018-11-20T02:56:02.116Z,0.00
2018-11-20T02:57:02.074Z,0.00
2018-11-20T02:58:02.045Z,0.00
2018-11-20T02:59:01.994Z,0.00
2018-11-20T03:00:01.960Z,0.00
2018-11-20T03:01:01.916Z,0.00
2018-11-20T03:02:01.880Z,0.00
2018-11-20T03:03:01.842Z,0.00
2018-11-20T03:04:01.796Z,0.00
2018-11-20T03:05:01.762Z,0.00
2018-11-20T03:06:02.682Z,0.00
2018-11-20T03:07:01.679Z,0.00
2018-11-20T03:08:01.663Z,0.00
2018-11-20T03:09:01.600Z,0.00
2018-11-20T03:10:01.558Z,0.00
2018-11-20T03:11:01.516Z,0.00
2018-11-20T03:12:01.475Z,0.00
2018-11-20T03:13:01.435Z,0.00
2018-11-20T03:14:01.409Z,0.00
2018-11-20T03:15:01.356Z,0.00
2018-11-20T03:16:01.314Z,0.00
2018-11-20T03:17:01.276Z,0.00
2018-11-20T03:18:01.237Z,0.00
2018-11-20T03:19:01.222Z,0.00
2018-11-20T03:20:01.155Z,0.00
2018-11-20T03:21:01.116Z,0.00
2018-11-20T03:22:01.077Z,0.00
2018-11-20T03:23:01.037Z,0.00
2018-11-20T03:24:01.004Z,0.00
2018-11-20T03:25:00.969Z,0.00
2018-11-20T03:26:00.927Z,0.00
2018-11-20T03:27:00.960Z,0.00
2018-11-20T03:28:00.836Z,0.00
2018-11-20T03:29:00.796Z,0.00
2018-11-20T03:30:00.768Z,0.00
2018-11-20T03:31:00.719Z,0.00
2018-11-20T03:32:00.681Z,0.00
2018-11-20T03:33:00.639Z,0.00
2018-11-20T03:34:00.600Z,0.00
2018-11-20T03:35:00.572Z,0.00
2018-11-20T03:36:00.526Z,0.00
2018-11-20T03:37:00.480Z,0.00
2018-11-20T03:38:00.443Z,0.00
2018-11-20T03:39:00.403Z,0.00
2018-11-20T03:40:00.379Z,0.00
2018-11-20T03:41:00.322Z,0.00
2018-11-20T03:42:00.280Z,0.00
2018-11-20T03:43:00.241Z,0.00
2018-11-20T03:44:00.200Z,0.00
2018-11-20T03:45:00.164Z,0.00
2018-11-20T03:46:00.128Z,0.00
2018-11-20T03:47:00.085Z,0.00
2018-11-20T03:48:00.148Z,0.00
2018-11-20T03:49:00.003Z,0.00
2018-11-20T03:49:59.963Z,0.00
2018-11-20T03:50:59.938Z,0.00
2018-11-20T03:51:59.884Z,0.00
2018-11-20T03:52:59.846Z,0.00
2018-11-20T03:53:59.806Z,0.00
2018-11-20T03:55:08.227Z,0.00
2018-11-20T03:55:59.750Z,0.00
2018-11-20T03:56:59.689Z,0.00
2018-11-20T03:57:59.645Z,0.00
2018-11-20T03:58:59.607Z,0.00
2018-11-20T03:59:59.568Z,0.00
2018-11-20T04:00:59.530Z,0.00
2018-11-20T04:01:59.500Z,0.00
2018-11-20T04:02:59.451Z,0.00
2018-11-20T04:03:59.409Z,0.00
2018-11-20T04:04:59.370Z,0.00
2018-11-20T04:05:59.331Z,0.00
2018-11-20T04:06:59.300Z,0.00
2018-11-20T04:07:59.249Z,0.00
2018-11-20T04:08:59.211Z,0.00
2018-11-20T04:09:59.170Z,0.00
2018-11-20T04:10:59.132Z,0.00
2018-11-20T04:11:59.146Z,0.00
2018-11-20T04:12:59.050Z,0.00
2018-11-20T04:13:59.025Z,0.00
2018-11-20T04:14:58.976Z,0.00
2018-11-20T04:15:58.929Z,0.00
2018-11-20T04:16:58.894Z,0.00
2018-11-20T04:17:59.794Z,0.00
2018-11-20T04:18:58.817Z,0.00
2018-11-20T04:19:58.774Z,0.00
2018-11-20T04:20:58.734Z,0.00
2018-11-20T04:21:58.697Z,0.00
2018-11-20T04:22:58.670Z,0.00
2018-11-20T04:23:58.616Z,0.00
2018-11-20T04:24:58.577Z,0.00
2018-11-20T04:25:58.537Z,0.00
2018-11-20T04:26:58.496Z,0.00
2018-11-20T04:27:58.468Z,0.00
2018-11-20T04:28:58.428Z,0.00
2018-11-20T04:29:58.381Z,0.00
2018-11-20T04:30:58.340Z,0.00
2018-11-20T04:31:58.299Z,0.00
2018-11-20T04:32:58.260Z,0.00
2018-11-20T04:33:58.246Z,0.00
2018-11-20T04:34:58.182Z,0.00
2018-11-20T04:35:58.141Z,0.00
2018-11-20T04:36:58.102Z,0.00
2018-11-20T04:37:58.066Z,0.00
2018-11-20T04:38:58.023Z,0.00
2018-11-20T04:39:58.731Z,0.00
2018-11-20T04:40:57.956Z,0.00
2018-11-20T04:41:57.903Z,0.00
2018-11-20T04:42:57.860Z,0.00
2018-11-20T04:43:57.824Z,0.00
2018-11-20T04:44:57.805Z,0.00
2018-11-20T04:45:58.734Z,0.00
2018-11-20T04:46:57.712Z,0.00
2018-11-20T04:47:57.665Z,0.00
2018-11-20T04:48:57.626Z,0.00
2018-11-20T04:49:57.692Z,0.00
2018-11-20T04:50:57.557Z,0.00
2018-11-20T04:51:57.505Z,0.00
2018-11-20T04:52:57.466Z,0.00
2018-11-20T04:53:58.236Z,0.00
2018-11-20T04:54:57.388Z,0.00
2018-11-20T04:55:57.360Z,0.00
2018-11-20T04:56:57.310Z,0.00
2018-11-20T04:57:57.268Z,0.00
2018-11-20T04:58:57.228Z,0.00
2018-11-20T04:59:57.189Z,0.00
2018-11-20T05:00:57.161Z,0.00
2018-11-20T05:01:57.107Z,0.00
2018-11-20T05:02:57.071Z,0.00
2018-11-20T05:03:57.028Z,0.00
2018-11-20T05:04:56.993Z,0.00
2018-11-20T05:05:56.981Z,0.00
2018-11-20T05:06:56.911Z,0.00
2018-11-20T05:07:56.871Z,0.00
2018-11-20T05:08:56.836Z,0.00
2018-11-20T05:09:56.797Z,0.00
2018-11-20T05:10:56.768Z,0.00
2018-11-20T05:11:56.722Z,0.00
2018-11-20T05:12:56.674Z,0.00
2018-11-20T05:13:56.650Z,0.00
2018-11-20T05:14:56.597Z,0.00
2018-11-20T05:15:56.556Z,0.00
2018-11-20T05:16:56.526Z,0.00
2018-11-20T05:17:56.515Z,0.00
2018-11-20T05:18:56.439Z,0.00
2018-11-20T05:19:56.397Z,0.00
2018-11-20T05:20:56.356Z,0.00
2018-11-20T05:21:56.326Z,0.00
2018-11-20T05:22:56.279Z,0.00
2018-11-20T05:23:56.240Z,0.00
2018-11-20T05:24:56.204Z,0.00
2018-11-20T05:25:56.246Z,0.00
2018-11-20T05:26:56.141Z,0.00
2018-11-20T05:27:56.095Z,0.00
2018-11-20T05:28:56.066Z,0.00
2018-11-20T05:30:03.791Z,0.00
2018-11-20T05:30:56.000Z,0.00
2018-11-20T05:31:55.923Z,0.00
2018-11-20T05:32:55.892Z,0.00
2018-11-20T05:33:55.847Z,0.00
2018-11-20T05:34:55.805Z,0.00
2018-11-20T05:35:55.765Z,0.00
2018-11-20T05:36:55.727Z,0.00
2018-11-20T05:37:55.695Z,0.00
2018-11-20T05:38:55.647Z,0.00
2018-11-20T05:39:55.606Z,0.00
2018-11-20T05:40:55.561Z,0.00
2018-11-20T05:41:55.525Z,0.00
2018-11-20T05:42:55.497Z,0.00
2018-11-20T05:43:55.453Z,0.00
2018-11-20T05:44:55.404Z,0.00
2018-11-20T05:45:55.365Z,0.00
2018-11-20T05:46:55.423Z,0.00
2018-11-20T05:47:55.318Z,0.00
2018-11-20T05:48:55.788Z,0.00
2018-11-20T05:49:55.207Z,0.00
2018-11-20T05:50:55.169Z,0.00
2018-11-20T05:51:55.128Z,0.00
2018-11-20T05:52:55.094Z,0.00
2018-11-20T05:53:55.067Z,0.00
2018-11-20T05:54:55.010Z,0.00
2018-11-20T05:55:54.970Z,0.00
2018-11-20T05:56:54.934Z,0.00
2018-11-20T05:57:54.895Z,0.00
2018-11-20T05:58:54.866Z,0.00
2018-11-20T05:59:54.810Z,0.00
2018-11-20T06:00:54.772Z,0.00
2018-11-20T06:01:54.734Z,0.00
2018-11-20T06:02:54.737Z,0.00
2018-11-20T06:03:54.664Z,0.00
2018-11-20T06:04:54.613Z,0.00
2018-11-20T06:05:54.625Z,0.00
2018-11-20T06:06:54.536Z,0.00
2018-11-20T06:07:54.496Z,0.00
2018-11-20T06:08:54.479Z,0.00
2018-11-20T06:09:54.418Z,0.00
2018-11-20T06:10:54.376Z,0.00
2018-11-20T06:11:54.346Z,0.00
2018-11-20T06:12:54.411Z,0.00
2018-11-20T06:13:54.256Z,0.00
2018-11-20T06:14:54.228Z,0.00
2018-11-20T06:15:54.177Z,0.00
2018-11-20T06:16:54.139Z,0.00
2018-11-20T06:17:54.098Z,0.00
2018-11-20T06:18:54.082Z,0.00
2018-11-20T06:19:54.029Z,0.00
2018-11-20T06:20:53.980Z,0.00
2018-11-20T06:21:53.945Z,0.00
2018-11-20T06:22:53.912Z,0.00
2018-11-20T06:23:53.863Z,0.00
2018-11-20T06:24:53.835Z,0.00
2018-11-20T06:25:53.784Z,0.00
2018-11-20T06:26:53.745Z,0.00
2018-11-20T06:27:53.703Z,0.00
2018-11-20T06:28:53.748Z,0.00
2018-11-20T06:29:53.630Z,0.00
2018-11-20T06:30:53.585Z,0.00
2018-11-20T06:31:54.303Z,0.00
2018-11-20T06:32:53.524Z,0.00
2018-11-20T06:33:53.491Z,4.00
2018-11-20T06:34:53.479Z,4.00
2018-11-20T06:35:53.387Z,0.00
2018-11-20T06:36:53.348Z,0.00
2018-11-20T06:37:53.308Z,4.00
2018-11-20T06:38:53.274Z,4.00
2018-11-20T06:39:53.228Z,4.00
2018-11-20T06:40:53.203Z,4.00
2018-11-20T06:41:53.143Z,4.00
2018-11-20T06:42:53.120Z,4.00
2018-11-20T06:43:53.068Z,4.00
2018-11-20T06:44:53.028Z,4.00
2018-11-20T06:45:52.999Z,4.00
2018-11-20T06:46:52.948Z,8.00
2018-11-20T06:47:52.908Z,8.00
2018-11-20T06:48:52.868Z,4.00
2018-11-20T06:49:52.830Z,8.00
2018-11-20T06:50:52.803Z,8.00
2018-11-20T06:51:52.772Z,8.00
2018-11-20T06:52:52.802Z,8.00
2018-11-20T06:53:52.692Z,8.00
2018-11-20T06:54:53.478Z,8.00
2018-11-20T06:55:52.664Z,8.00
2018-11-20T06:56:52.620Z,12.00
2018-11-20T06:57:52.601Z,12.00
2018-11-20T06:58:52.476Z,12.00
2018-11-20T06:59:53.352Z,16.00
2018-11-20T07:00:52.410Z,16.00
2018-11-20T07:01:52.348Z,12.00
2018-11-20T07:03:00.357Z,12.00
2018-11-20T07:03:52.272Z,16.00
2018-11-20T07:04:52.234Z,16.00
2018-11-20T07:05:52.203Z,16.00
2018-11-20T07:06:52.156Z,12.00
2018-11-20T07:07:52.166Z,16.00
2018-11-20T07:08:52.172Z,16.00
2018-11-20T07:09:52.030Z,16.00
2018-11-20T07:10:52.016Z,16.00
2018-11-20T07:11:52.000Z,20.00
2018-11-20T07:12:51.942Z,20.00
2018-11-20T07:13:51.873Z,20.00
2018-11-20T07:14:51.840Z,20.00
2018-11-20T07:15:51.970Z,20.00
2018-11-20T07:16:51.766Z,20.00
2018-11-20T07:17:51.715Z,24.00
2018-11-20T07:18:52.794Z,24.00
2018-11-20T07:19:51.667Z,24.00
2018-11-20T07:20:51.594Z,28.00
2018-11-20T07:21:51.565Z,28.00
2018-11-20T07:22:51.626Z,28.00
2018-11-20T07:23:51.514Z,28.00
2018-11-20T07:24:51.492Z,32.00
2018-11-20T07:25:51.413Z,40.00
2018-11-20T07:26:51.378Z,36.00
2018-11-20T07:27:51.367Z,40.00
2018-11-20T07:28:51.838Z,44.00
2018-11-20T07:29:51.315Z,48.00
2018-11-20T07:30:51.312Z,48.00
2018-11-20T07:31:51.196Z,48.00
2018-11-20T07:32:51.127Z,48.00
2018-11-20T07:33:51.079Z,48.00
2018-11-20T07:34:51.100Z,44.00
2018-11-20T07:35:51.009Z,44.00
2018-11-20T07:36:51.081Z,44.00
2018-11-20T07:37:50.990Z,52.00
2018-11-20T07:38:51.790Z,52.00
2018-11-20T07:39:50.941Z,52.00
2018-11-20T07:40:50.866Z,56.00
2018-11-20T07:41:50.812Z,56.00
2018-11-20T07:42:50.864Z,56.00
2018-11-20T07:43:50.979Z,68.00
2018-11-20T07:44:50.743Z,72.00
2018-11-20T07:45:50.608Z,76.00
2018-11-20T07:46:51.792Z,76.00
2018-11-20T07:47:50.547Z,80.00
2018-11-20T07:48:50.559Z,76.00
2018-11-20T07:49:50.469Z,76.00
2018-11-20T07:50:50.419Z,84.00
2018-11-20T07:51:50.417Z,76.00
2018-11-20T07:52:50.375Z,76.00
2018-11-20T07:53:50.305Z,72.00
2018-11-20T07:54:50.253Z,72.00
2018-11-20T07:55:50.328Z,72.00
2018-11-20T07:56:50.198Z,76.00
2018-11-20T07:57:50.159Z,72.00
2018-11-20T07:58:50.796Z,80.00
2018-11-20T07:59:50.973Z,88.00
2018-11-20T08:00:50.134Z,84.00
2018-11-20T08:01:50.039Z,88.00
2018-11-20T08:02:50.101Z,92.00
2018-11-20T08:03:50.034Z,108.00
2018-11-20T08:04:49.858Z,112.00
2018-11-20T08:05:49.810Z,120.00
2018-11-20T08:06:49.796Z,124.00
2018-11-20T08:07:49.760Z,124.00
2018-11-20T08:08:49.727Z,128.00
2018-11-20T08:09:49.677Z,144.00
2018-11-20T08:10:49.668Z,152.00
2018-11-20T08:11:49.734Z,144.00
2018-11-20T08:12:49.693Z,152.00
2018-11-20T08:13:49.636Z,152.00
2018-11-20T08:14:49.617Z,156.00
2018-11-20T08:15:49.475Z,148.00
2018-11-20T08:16:49.373Z,148.00
2018-11-20T08:17:49.385Z,144.00
2018-11-20T08:18:49.313Z,148.00
2018-11-20T08:19:49.277Z,156.00
2018-11-20T08:20:49.265Z,160.00
2018-11-20T08:21:49.204Z,160.00
2018-11-20T08:22:49.179Z,156.00
2018-11-20T08:23:49.131Z,152.00
2018-11-20T08:24:49.072Z,152.00
2018-11-20T08:25:49.160Z,144.00
2018-11-20T08:26:48.976Z,156.00
2018-11-20T08:27:48.962Z,148.00
2018-11-20T08:28:48.976Z,156.00
2018-11-20T08:29:48.892Z,164.00
2018-11-20T08:30:48.886Z,164.00
2018-11-20T08:31:48.807Z,168.00
2018-11-20T08:32:48.749Z,164.00
2018-11-20T08:33:48.768Z,168.00
2018-11-20T08:34:48.699Z,180.00
2018-11-20T08:35:48.772Z,188.00
2018-11-20T08:36:57.424Z,200.00
2018-11-20T08:37:48.600Z,196.00
2018-11-20T08:38:48.515Z,196.00
2018-11-20T08:39:48.460Z,192.00
2018-11-20T08:40:48.435Z,188.00
2018-11-20T08:41:48.416Z,200.00
2018-11-20T08:42:48.838Z,204.00
2018-11-20T08:43:48.838Z,204.00
2018-11-20T08:44:48.349Z,196.00
2018-11-20T08:45:48.306Z,196.00
2018-11-20T08:46:48.347Z,196.00
2018-11-20T08:47:48.346Z,192.00
2018-11-20T08:48:48.223Z,188.00
2018-11-20T08:49:48.151Z,184.00
2018-11-20T08:50:49.034Z,172.00
2018-11-20T08:51:48.070Z,160.00
2018-11-20T08:52:48.075Z,164.00
2018-11-20T08:53:48.854Z,168.00
2018-11-20T08:54:48.025Z,172.00
2018-11-20T08:55:48.343Z,180.00
2018-11-20T08:56:47.870Z,180.00
2018-11-20T08:57:47.888Z,184.00
2018-11-20T08:58:47.873Z,188.00
2018-11-20T08:59:47.830Z,188.00
2018-11-20T09:00:48.345Z,184.00
2018-11-20T09:01:47.679Z,184.00
2018-11-20T09:02:48.443Z,188.00
2018-11-20T09:03:47.613Z,196.00
2018-11-20T09:04:47.618Z,204.00
2018-11-20T09:05:47.531Z,204.00
2018-11-20T09:06:47.487Z,192.00
2018-11-20T09:07:47.847Z,196.00
2018-11-20T09:08:47.849Z,192.00
2018-11-20T09:09:47.375Z,204.00
2018-11-20T09:10:47.392Z,228.00
2018-11-20T09:11:47.323Z,212.00
2018-11-20T09:12:47.330Z,204.00
2018-11-20T09:13:47.227Z,204.00
2018-11-20T09:14:47.191Z,216.00
2018-11-20T09:15:47.202Z,212.00
2018-11-20T09:16:47.138Z,204.00
2018-11-20T09:17:47.117Z,196.00
2018-11-20T09:18:48.024Z,196.00
2018-11-20T09:19:47.015Z,192.00
2018-11-20T09:20:46.983Z,188.00
2018-11-20T09:21:47.349Z,184.00
2018-11-20T09:22:47.349Z,188.00
2018-11-20T09:23:46.829Z,204.00
2018-11-20T09:24:46.805Z,220.00
2018-11-20T09:25:46.815Z,216.00
2018-11-20T09:26:46.692Z,224.00
2018-11-20T09:27:47.357Z,236.00
2018-11-20T09:28:46.610Z,228.00
2018-11-20T09:29:46.582Z,244.00
2018-11-20T09:30:46.582Z,244.00
2018-11-20T09:31:46.483Z,248.00
2018-11-20T09:32:46.460Z,260.00
2018-11-20T09:33:46.488Z,276.00
2018-11-20T09:34:46.466Z,292.00
2018-11-20T09:35:46.959Z,288.00
2018-11-20T09:36:46.304Z,300.00
2018-11-20T09:37:46.279Z,328.00
2018-11-20T09:38:46.195Z,324.00
2018-11-20T09:39:46.244Z,332.00
2018-11-20T09:40:46.214Z,328.00
2018-11-20T09:41:46.136Z,352.00
2018-11-20T09:42:46.111Z,388.00
2018-11-20T09:43:46.025Z,360.00
2018-11-20T09:44:46.048Z,364.00
2018-11-20T09:45:45.960Z,360.00
2018-11-20T09:46:46.003Z,372.00
2018-11-20T09:47:46.357Z,372.00
2018-11-20T09:48:45.807Z,380.00
2018-11-20T09:49:45.809Z,400.00
2018-11-20T09:50:45.748Z,412.00
2018-11-20T09:51:45.728Z,420.00
2018-11-20T09:52:45.807Z,396.00
2018-11-20T09:53:45.602Z,372.00
2018-11-20T09:54:45.578Z,380.00
2018-11-20T09:55:45.608Z,396.00
2018-11-20T09:56:45.537Z,428.00
2018-11-20T09:57:45.879Z,484.00
2018-11-20T09:58:45.453Z,500.00
2018-11-20T09:59:45.460Z,476.00
2018-11-20T10:00:45.351Z,476.00
2018-11-20T10:01:45.407Z,532.00
2018-11-20T10:02:45.946Z,552.00
2018-11-20T10:03:45.347Z,532.00
2018-11-20T10:04:45.968Z,528.00
2018-11-20T10:05:45.172Z,536.00
2018-11-20T10:06:45.126Z,600.00
2018-11-20T10:07:45.030Z,628.00
2018-11-20T10:08:45.102Z,676.00
2018-11-20T10:09:45.031Z,724.00
2018-11-20T10:10:54.466Z,712.00
2018-11-20T10:11:44.943Z,748.00
2018-11-20T10:12:44.791Z,796.00
2018-11-20T10:13:44.740Z,884.00
2018-11-20T10:14:44.759Z,868.00
2018-11-20T10:15:44.660Z,948.00
2018-11-20T10:16:44.621Z,924.00
2018-11-20T10:17:44.609Z,972.00
2018-11-20T10:18:44.560Z,940.00
2018-11-20T10:19:44.554Z,872.00
2018-11-20T10:20:44.503Z,928.00
2018-11-20T10:21:44.579Z,884.00
2018-11-20T10:22:44.918Z,856.00
2018-11-20T10:23:44.909Z,804.00
2018-11-20T10:24:44.445Z,760.00
2018-11-20T10:25:44.531Z,872.00
2018-11-20T10:26:44.296Z,896.00
2018-11-20T10:27:44.275Z,832.00
2018-11-20T10:28:44.268Z,848.00
2018-11-20T10:29:44.224Z,860.00
2018-11-20T10:30:44.904Z,852.00
2018-11-20T10:31:44.901Z,892.00
2018-11-20T10:32:44.057Z,872.00
2018-11-20T10:33:45.085Z,892.00
2018-11-20T10:34:44.076Z,856.00
2018-11-20T10:35:43.966Z,760.00
2018-11-20T10:36:44.404Z,676.00
2018-11-20T10:37:44.403Z,612.00
2018-11-20T10:38:43.864Z,572.00
2018-11-20T10:39:43.806Z,552.00
2018-11-20T10:40:43.816Z,552.00
2018-11-20T10:41:43.696Z,564.00
2018-11-20T10:42:43.609Z,552.00
2018-11-20T10:43:43.645Z,528.00
2018-11-20T10:44:43.522Z,548.00
2018-11-20T10:45:43.513Z,572.00
2018-11-20T10:46:43.554Z,596.00
2018-11-20T10:47:43.399Z,660.00
2018-11-20T10:48:43.357Z,736.00
2018-11-20T10:49:43.348Z,816.00
2018-11-20T10:50:43.305Z,852.00
2018-11-20T10:51:43.247Z,868.00
2018-11-20T10:52:43.339Z,892.00
2018-11-20T10:53:43.288Z,924.00
2018-11-20T10:54:43.143Z,956.00
2018-11-20T10:55:43.119Z,1004.00
2018-11-20T10:56:43.048Z,996.00
2018-11-20T10:57:43.016Z,952.00
2018-11-20T10:58:42.966Z,1080.00
2018-11-20T10:59:43.022Z,1188.00
2018-11-20T11:00:42.891Z,1244.00
2018-11-20T11:01:42.851Z,1228.00
2018-11-20T11:02:42.822Z,1120.00
2018-11-20T11:03:42.775Z,1072.00
2018-11-20T11:04:42.774Z,1024.00
2018-11-20T11:05:42.703Z,1152.00
2018-11-20T11:06:42.755Z,1336.00
2018-11-20T11:07:42.791Z,1424.00
2018-11-20T11:08:42.574Z,1364.00
2018-11-20T11:09:42.944Z,1196.00
2018-11-20T11:10:42.582Z,1072.00
2018-11-20T11:11:42.614Z,1004.00
2018-11-20T11:12:42.475Z,952.00
2018-11-20T11:13:42.408Z,896.00
2018-11-20T11:14:42.386Z,836.00
2018-11-20T11:15:42.313Z,800.00
2018-11-20T11:16:42.262Z,772.00
2018-11-20T11:17:42.224Z,768.00
2018-11-20T11:18:42.196Z,756.00
2018-11-20T11:19:42.147Z,712.00
2018-11-20T11:20:42.328Z,712.00
2018-11-20T11:21:42.087Z,812.00
2018-11-20T11:22:42.041Z,824.00
2018-11-20T11:23:42.002Z,780.00
2018-11-20T11:24:41.953Z,824.00
2018-11-20T11:25:41.926Z,808.00
2018-11-20T11:26:41.876Z,784.00
2018-11-20T11:27:41.832Z,724.00
2018-11-20T11:28:41.818Z,704.00
2018-11-20T11:29:41.753Z,684.00
2018-11-20T11:30:41.766Z,640.00
2018-11-20T11:31:41.726Z,640.00
2018-11-20T11:32:41.643Z,636.00
2018-11-20T11:33:41.620Z,616.00
2018-11-20T11:34:41.646Z,628.00
2018-11-20T11:35:41.573Z,620.00
2018-11-20T11:36:42.436Z,600.00
2018-11-20T11:37:41.449Z,604.00
2018-11-20T11:38:41.404Z,612.00
2018-11-20T11:39:41.363Z,628.00
2018-11-20T11:40:41.343Z,628.00
2018-11-20T11:41:41.305Z,648.00
2018-11-20T11:42:41.251Z,676.00
2018-11-20T11:43:41.216Z,700.00
2018-11-20T11:44:41.169Z,704.00
2018-11-20T11:45:41.134Z,716.00
2018-11-20T11:46:41.103Z,704.00
2018-11-20T11:47:41.044Z,648.00
2018-11-20T11:48:41.012Z,608.00
2018-11-20T11:49:40.978Z,584.00
2018-11-20T11:50:40.947Z,592.00
2018-11-20T11:51:40.901Z,584.00
2018-11-20T11:52:40.862Z,588.00
2018-11-20T11:53:40.812Z,560.00
2018-11-20T11:54:40.781Z,560.00
2018-11-20T11:55:40.735Z,588.00
2018-11-20T11:56:40.708Z,584.00
2018-11-20T11:57:40.653Z,572.00
2018-11-20T11:58:40.619Z,576.00
2018-11-20T11:59:40.574Z,588.00
2018-11-20T12:00:40.542Z,576.00
2018-11-20T12:03:40.431Z,572.00
2018-11-20T12:04:40.402Z,576.00
2018-11-20T12:05:40.392Z,584.00
2018-11-20T12:06:40.347Z,616.00
2018-11-20T12:07:40.317Z,612.00
2018-11-20T12:08:40.269Z,616.00
2018-11-20T12:09:40.224Z,624.00
2018-11-20T12:10:40.193Z,592.00
2018-11-20T12:11:40.156Z,580.00
2018-11-20T12:12:40.078Z,592.00
2018-11-20T12:13:40.068Z,576.00
2018-11-20T12:14:40.005Z,568.00
2018-11-20T12:15:40.020Z,556.00
2018-11-20T12:16:39.961Z,544.00
2018-11-20T12:17:39.944Z,532.00
2018-11-20T12:18:39.939Z,536.00
2018-11-20T12:19:39.866Z,528.00
2018-11-20T12:20:43.325Z,528.00
2018-11-20T12:21:39.766Z,544.00
2018-11-20T12:22:39.670Z,552.00
2018-11-20T12:23:39.655Z,588.00
2018-11-20T12:24:39.665Z,576.00
2018-11-20T12:25:39.609Z,564.00
2018-11-20T12:26:39.587Z,568.00
2018-11-20T12:27:40.438Z,560.00
2018-11-20T12:28:39.446Z,608.00
2018-11-20T12:29:39.392Z,632.00
2018-11-20T12:30:39.365Z,644.00
2018-11-20T12:31:39.329Z,688.00
2018-11-20T12:32:39.278Z,716.00
2018-11-20T12:33:39.252Z,760.00
2018-11-20T12:34:39.199Z,776.00
2018-11-20T12:35:39.155Z,764.00
2018-11-20T12:36:39.115Z,740.00
2018-11-20T12:37:40.860Z,700.00
2018-11-20T12:38:39.057Z,668.00
2018-11-20T12:39:40.813Z,652.00
2018-11-20T12:40:38.960Z,652.00
2018-11-20T12:41:38.923Z,652.00
2018-11-20T12:42:41.073Z,640.00
2018-11-20T12:43:38.860Z,608.00
2018-11-20T12:44:38.824Z,576.00
2018-11-20T12:45:38.767Z,548.00
2018-11-20T12:46:38.724Z,540.00
2018-11-20T12:47:40.505Z,528.00
2018-11-20T12:48:38.640Z,540.00
2018-11-20T12:49:38.639Z,540.00
2018-11-20T12:50:38.573Z,528.00
2018-11-20T12:51:38.526Z,524.00
2018-11-20T12:52:38.500Z,504.00
2018-11-20T12:53:40.684Z,500.00
2018-11-20T12:54:38.438Z,484.00
2018-11-20T12:55:38.367Z,476.00
2018-11-20T12:57:46.053Z,472.00
2018-11-20T12:58:38.266Z,480.00